Time;durP1;ratioP1;P1;durP2;ratioP2;P2;SDS_P1;SDS_P2;PMS_P1;PMS_P2;Temp;Humidity;BMP_temperature;BMP_pressure;BME280_temperature;BME280_humidity;BME280_pressure;Samples;Min_cycle;Max_cycle;Signal;HPM_P1;HPM_P2
2023/08/15 00:01:08;;;;;;;7.33;4.30;;;20.80;99.90;;;;;;4863196;29;20230;-90
2023/08/15 00:03:34;;;;;;;4.90;4.37;;;20.70;99.90;;;;;;4862926;29;20192;-90
2023/08/15 00:05:59;;;;;;;4.20;3.40;;;20.60;99.90;;;;;;4862935;29;20205;-90
2023/08/15 00:08:25;;;;;;;5.80;4.70;;;20.60;99.90;;;;;;4863209;29;20192;-90
2023/08/15 00:10:50;;;;;;;5.30;3.90;;;20.60;99.90;;;;;;4863284;29;20294;-90
2023/08/15 00:13:16;;;;;;;4.37;3.97;;;20.50;99.90;;;;;;4862015;29;20204;-90
2023/08/15 00:15:42;;;;;;;4.87;4.20;;;20.50;99.90;;;;;;4863111;29;20699;-90
2023/08/15 00:18:07;;;;;;;4.30;3.90;;;20.50;99.90;;;;;;4863686;29;20696;-91
2023/08/15 00:20:33;;;;;;;4.30;3.77;;;20.50;99.90;;;;;;4861830;29;20562;-91
2023/08/15 00:22:59;;;;;;;5.00;4.17;;;20.50;99.90;;;;;;4861398;29;20554;-90
2023/08/15 00:25:25;;;;;;;4.47;3.60;;;20.40;99.90;;;;;;4862655;29;20405;-91
2023/08/15 00:27:51;;;;;;;4.37;3.97;;;20.40;99.90;;;;;;4862142;29;20478;-91
2023/08/15 00:30:16;;;;;;;4.73;4.20;;;20.40;99.90;;;;;;4862417;29;20492;-90
2023/08/15 00:32:42;;;;;;;6.53;3.60;;;20.40;99.90;;;;;;4862952;29;20623;-90
2023/08/15 00:35:10;;;;;;;6.23;3.80;;;20.30;99.90;;;;;;4862131;29;20303;-89
2023/08/15 00:37:36;;;;;;;6.53;4.10;;;20.30;99.90;;;;;;4862572;29;20201;-90
2023/08/15 00:40:02;;;;;;;4.70;4.30;;;20.30;99.90;;;;;;4862632;29;20520;-91
2023/08/15 00:42:28;;;;;;;4.80;4.33;;;20.30;99.90;;;;;;4861427;29;20214;-91
2023/08/15 00:44:53;;;;;;;6.03;4.27;;;20.30;99.90;;;;;;4862401;29;20960;-91
2023/08/15 00:47:20;;;;;;;5.40;4.30;;;20.30;99.90;;;;;;4862358;29;20240;-91
2023/08/15 00:49:46;;;;;;;4.67;4.30;;;20.20;99.90;;;;;;4861813;29;20248;-91
2023/08/15 00:52:14;;;;;;;5.27;4.03;;;20.20;99.90;;;;;;4862432;29;20399;-91
2023/08/15 00:54:46;;;;;;;4.70;4.27;;;20.20;99.90;;;;;;4862369;29;20395;-91
2023/08/15 00:57:12;;;;;;;4.23;3.93;;;20.10;99.90;;;;;;4861792;29;20389;-91
2023/08/15 00:59:39;;;;;;;5.50;4.23;;;20.10;99.90;;;;;;4861666;29;20882;-91
2023/08/15 01:02:04;;;;;;;5.67;4.67;;;20.00;99.90;;;;;;4862121;29;20417;-91
2023/08/15 01:04:31;;;;;;;5.13;4.63;;;20.10;99.90;;;;;;4861271;29;20894;-91
2023/08/15 01:06:58;;;;;;;4.90;4.50;;;20.10;99.90;;;;;;4862137;29;20667;-92
2023/08/15 01:09:23;;;;;;;4.90;4.47;;;20.00;99.90;;;;;;4862173;29;20395;-91
2023/08/15 01:12:08;;;;;;;5.63;5.13;;;20.00;99.90;;;;;;4845300;29;20766;-92
2023/08/15 01:14:43;;;;;;;6.30;4.67;;;20.00;99.90;;;;;;4862136;29;20184;-92
2023/08/15 01:17:15;;;;;;;8.20;5.20;;;20.00;99.90;;;;;;4861981;29;20468;-91
2023/08/15 01:19:49;;;;;;;7.17;4.80;;;20.00;99.90;;;;;;4862161;29;20417;-92
2023/08/15 01:22:23;;;;;;;5.33;4.80;;;20.00;99.90;;;;;;4862097;29;20384;-92
2023/08/15 01:24:49;;;;;;;5.73;5.07;;;19.90;99.90;;;;;;4862155;29;20413;-92
2023/08/15 01:27:15;;;;;;;11.57;6.07;;;19.90;99.90;;;;;;4861614;29;20834;-92
2023/08/15 01:29:41;;;;;;;5.40;4.90;;;20.00;99.90;;;;;;4861428;29;20587;-92
2023/08/15 01:32:29;;;;;;;6.10;4.60;;;19.90;99.90;;;;;;4862150;29;20184;-92
2023/08/15 01:35:05;;;;;;;5.63;4.83;;;19.90;99.90;;;;;;4861676;29;20667;-92
2023/08/15 01:37:31;;;;;;;8.80;4.70;;;19.80;99.90;;;;;;4861605;29;20474;-92
2023/08/15 01:40:00;;;;;;;5.73;4.80;;;19.80;99.90;;;;;;4861983;29;20516;-92
2023/08/15 01:42:29;;;;;;;5.60;5.00;;;19.80;99.90;;;;;;4861570;29;20428;-91
2023/08/15 01:44:56;;;;;;;6.27;5.67;;;19.80;99.90;;;;;;4861980;29;20387;-92
2023/08/15 01:47:22;;;;;;;6.40;4.83;;;19.80;99.90;;;;;;4862123;29;20421;-92
2023/08/15 01:49:48;;;;;;;6.47;4.70;;;19.80;99.90;;;;;;4862413;29;20450;-91
2023/08/15 01:52:14;;;;;;;7.27;5.03;;;19.70;99.90;;;;;;4832972;29;20477;-92
2023/08/15 01:54:40;;;;;;;5.47;4.60;;;19.70;99.90;;;;;;4862547;29;20192;-92
2023/08/15 01:57:05;;;;;;;8.33;5.60;;;19.70;99.90;;;;;;4861708;29;20184;-92
2023/08/15 01:59:31;;;;;;;6.23;4.97;;;19.80;99.90;;;;;;4861638;29;20510;-92
2023/08/15 02:01:56;;;;;;;5.47;4.97;;;19.70;99.90;;;;;;4861897;29;20204;-92
2023/08/15 02:04:22;;;;;;;6.07;5.00;;;19.80;99.90;;;;;;4861511;29;20248;-92
2023/08/15 02:06:47;;;;;;;7.10;5.53;;;19.80;99.90;;;;;;4861657;29;20676;-91
2023/08/15 02:09:13;;;;;;;6.13;5.63;;;19.90;99.90;;;;;;4861581;29;20200;-91
2023/08/15 02:11:39;;;;;;;10.93;6.13;;;20.00;99.90;;;;;;4861364;29;20188;-92
2023/08/15 02:14:04;;;;;;;5.73;5.13;;;19.90;99.90;;;;;;4861738;29;20290;-91
2023/08/15 02:16:30;;;;;;;8.37;5.70;;;19.90;99.90;;;;;;4861491;29;20562;-92
2023/08/15 02:18:55;;;;;;;7.13;5.50;;;19.90;99.90;;;;;;4861780;29;20193;-92
2023/08/15 02:21:21;;;;;;;5.93;5.00;;;20.00;99.90;;;;;;4863295;29;20563;-91
2023/08/15 02:23:46;;;;;;;11.30;5.37;;;20.00;99.90;;;;;;4866868;29;20193;-92
2023/08/15 02:26:12;;;;;;;6.80;5.00;;;20.00;99.90;;;;;;4861621;29;20224;-92
2023/08/15 02:28:38;;;;;;;7.80;5.30;;;20.00;99.90;;;;;;4861352;29;20275;-92
2023/08/15 02:31:05;;;;;;;6.07;5.47;;;20.00;99.90;;;;;;4861790;29;20915;-92
2023/08/15 02:33:34;;;;;;;7.50;5.50;;;20.10;99.90;;;;;;4861211;29;20203;-92
2023/08/15 02:36:06;;;;;;;7.80;5.33;;;20.10;99.90;;;;;;4861550;29;20430;-92
2023/08/15 02:38:33;;;;;;;5.50;4.90;;;20.10;99.90;;;;;;4861486;29;20532;-92
2023/08/15 02:40:58;;;;;;;7.80;5.97;;;20.20;99.90;;;;;;4861466;29;20413;-91
2023/08/15 02:43:24;;;;;;;5.70;5.20;;;20.20;99.90;;;;;;4861073;29;20421;-91
2023/08/15 02:45:49;;;;;;;6.37;5.33;;;20.10;99.90;;;;;;4861115;29;20264;-90
2023/08/15 02:48:15;;;;;;;6.50;5.90;;;20.20;99.90;;;;;;4861532;29;20193;-85
2023/08/15 02:50:42;;;;;;;6.77;5.30;;;20.20;99.90;;;;;;4862644;29;20670;-85
2023/08/15 02:53:07;;;;;;;11.07;6.33;;;20.10;99.90;;;;;;4861695;29;20195;-84
2023/08/15 02:55:33;;;;;;;7.07;6.37;;;20.00;99.90;;;;;;4861298;29;20531;-84
2023/08/15 02:57:59;;;;;;;8.77;5.67;;;19.90;99.90;;;;;;4861794;29;20192;-84
2023/08/15 03:00:25;;;;;;;8.47;6.33;;;19.90;99.90;;;;;;4861421;29;20445;-85
2023/08/15 03:02:50;;;;;;;8.70;6.40;;;19.80;99.90;;;;;;4861615;29;20204;-85
2023/08/15 03:05:16;;;;;;;8.97;7.43;;;19.80;99.90;;;;;;4861271;29;20197;-85
2023/08/15 03:07:41;;;;;;;9.30;6.50;;;19.80;99.90;;;;;;4861146;29;20711;-85
2023/08/15 03:10:07;;;;;;;11.83;6.47;;;19.70;99.90;;;;;;4861454;29;20228;-85
2023/08/15 03:12:33;;;;;;;14.27;7.50;;;19.70;99.90;;;;;;4861053;29;20208;-85
2023/08/15 03:15:00;;;;;;;9.30;7.03;;;19.70;99.90;;;;;;4861807;29;20948;-85
2023/08/15 03:17:25;;;;;;;11.27;7.17;;;19.70;99.90;;;;;;4861118;29;20185;-86
2023/08/15 03:19:53;;;;;;;8.17;6.67;;;19.70;99.90;;;;;;4861645;29;20924;-86
2023/08/15 03:22:19;;;;;;;10.30;7.70;;;19.70;99.90;;;;;;4861249;29;20184;-86
2023/08/15 03:24:45;;;;;;;11.50;8.43;;;19.70;99.90;;;;;;4864131;29;20396;-86
2023/08/15 03:27:10;;;;;;;11.13;8.50;;;19.70;99.90;;;;;;4847929;29;20671;-86
2023/08/15 03:29:36;;;;;;;9.83;8.83;;;19.70;99.90;;;;;;4847459;29;20467;-86
2023/08/15 03:32:02;;;;;;;12.10;8.97;;;19.70;99.90;;;;;;4864385;29;20298;-87
2023/08/15 03:34:29;;;;;;;11.47;8.10;;;19.70;99.90;;;;;;4832286;29;20707;-87
2023/08/15 03:36:56;;;;;;;9.63;8.30;;;19.60;99.90;;;;;;4863923;29;20197;-86
2023/08/15 03:39:21;;;;;;;12.33;8.73;;;19.60;99.90;;;;;;4864391;29;20916;-87
2023/08/15 03:41:47;;;;;;;10.00;8.77;;;19.70;99.90;;;;;;4863950;29;20421;-86
2023/08/15 03:44:13;;;;;;;10.83;8.97;;;19.70;99.90;;;;;;4864465;29;20633;-87
2023/08/15 03:46:40;;;;;;;11.57;7.60;;;19.60;99.90;;;;;;4863707;29;20249;-87
2023/08/15 03:49:06;;;;;;;9.13;7.93;;;19.60;99.90;;;;;;4864028;29;20188;-87
2023/08/15 03:51:32;;;;;;;10.77;7.40;;;19.60;99.90;;;;;;4863248;29;20484;-86
2023/08/15 03:53:57;;;;;;;10.00;7.10;;;19.60;99.90;;;;;;4847315;29;20412;-86
2023/08/15 03:56:23;;;;;;;8.60;7.10;;;19.60;99.90;;;;;;4863879;29;20188;-86
2023/08/15 03:58:48;;;;;;;11.23;7.63;;;19.60;99.90;;;;;;4863818;29;20544;-86
2023/08/15 04:01:14;;;;;;;9.53;7.20;;;19.60;99.90;;;;;;4863981;29;20633;-86
2023/08/15 04:03:40;;;;;;;9.07;8.17;;;19.50;99.90;;;;;;4863633;29;20552;-87
2023/08/15 04:06:05;;;;;;;12.40;8.10;;;19.50;99.90;;;;;;4863593;29;20192;-86
2023/08/15 04:08:31;;;;;;;10.17;7.37;;;19.50;99.90;;;;;;4831902;29;20404;-87
2023/08/15 04:10:57;;;;;;;9.50;7.80;;;19.50;99.90;;;;;;4863494;29;20331;-86
2023/08/15 04:13:22;;;;;;;7.77;7.03;;;19.50;99.90;;;;;;4863444;29;20257;-86
2023/08/15 04:15:48;;;;;;;11.20;7.60;;;19.50;99.90;;;;;;4863300;29;20188;-86
2023/08/15 04:18:13;;;;;;;11.30;8.00;;;19.50;99.90;;;;;;4863472;29;20546;-87
2023/08/15 04:20:40;;;;;;;10.77;8.03;;;19.50;99.90;;;;;;4863479;29;20192;-86
2023/08/15 04:23:07;;;;;;;9.13;7.67;;;19.50;99.90;;;;;;4863628;29;20188;-87
2023/08/15 04:25:33;;;;;;;15.50;8.80;;;19.50;99.90;;;;;;4863026;29;20389;-87
2023/08/15 04:27:59;;;;;;;7.47;6.17;;;19.50;99.90;;;;;;4863211;29;20771;-87
2023/08/15 04:30:25;;;;;;;13.03;8.07;;;19.40;99.90;;;;;;4862670;29;20489;-87
2023/08/15 04:32:50;;;;;;;8.63;6.17;;;19.40;99.90;;;;;;4862939;29;20341;-84
2023/08/15 04:35:16;;;;;;;18.87;8.10;;;19.40;99.90;;;;;;4861726;29;20208;-84
2023/08/15 04:37:42;;;;;;;8.20;6.77;;;19.30;99.90;;;;;;4862720;29;20638;-85
2023/08/15 04:40:12;;;;;;;12.53;7.63;;;19.30;99.90;;;;;;4862644;29;20278;-85
2023/08/15 04:42:37;;;;;;;11.87;7.10;;;19.30;99.90;;;;;;4863018;29;20181;-85
2023/08/15 04:45:03;;;;;;;18.03;7.97;;;19.30;99.90;;;;;;4863177;29;20421;-84
2023/08/15 04:47:29;;;;;;;10.50;8.17;;;19.30;99.90;;;;;;4862862;29;20200;-85
2023/08/15 04:49:54;;;;;;;11.20;7.53;;;19.30;99.90;;;;;;4864098;29;20939;-85
2023/08/15 04:52:20;;;;;;;12.90;8.73;;;19.30;99.90;;;;;;4863211;29;20706;-84
2023/08/15 04:54:46;;;;;;;14.70;8.13;;;19.40;99.90;;;;;;4862504;29;20211;-84
2023/08/15 04:57:12;;;;;;;10.00;8.40;;;19.40;99.90;;;;;;4846356;29;20280;-85
2023/08/15 04:59:37;;;;;;;11.00;7.23;;;19.40;99.90;;;;;;4862541;29;20204;-86
2023/08/15 05:02:03;;;;;;;8.90;7.43;;;19.40;99.90;;;;;;4862723;29;20428;-85
2023/08/15 05:04:29;;;;;;;8.17;7.23;;;19.40;99.90;;;;;;4862498;29;20188;-86
2023/08/15 05:06:55;;;;;;;12.90;7.13;;;19.30;99.90;;;;;;4862548;29;20192;-84
2023/08/15 05:09:21;;;;;;;12.80;7.13;;;19.40;99.90;;;;;;4862600;29;20469;-86
2023/08/15 05:11:46;;;;;;;13.13;8.47;;;19.40;99.90;;;;;;4862438;29;20202;-86
2023/08/15 05:14:13;;;;;;;10.80;8.10;;;19.30;99.90;;;;;;4831053;29;20516;-86
2023/08/15 05:16:38;;;;;;;11.00;8.27;;;19.30;99.90;;;;;;4845740;29;20188;-87
2023/08/15 05:19:04;;;;;;;12.00;8.70;;;19.30;99.90;;;;;;4862665;29;20796;-87
2023/08/15 05:21:30;;;;;;;12.80;7.23;;;19.30;99.90;;;;;;4862157;29;20279;-88
2023/08/15 05:23:55;;;;;;;9.70;7.23;;;19.30;99.90;;;;;;4862372;29;20184;-87
2023/08/15 05:26:21;;;;;;;9.60;8.23;;;19.30;99.90;;;;;;4862383;29;20205;-87
2023/08/15 05:28:47;;;;;;;15.43;8.27;;;19.30;99.90;;;;;;4845535;29;20232;-87
2023/08/15 05:31:14;;;;;;;9.30;7.67;;;19.30;99.90;;;;;;4862231;29;20242;-87
2023/08/15 05:33:40;;;;;;;9.00;6.83;;;19.30;99.90;;;;;;4861928;29;20233;-88
2023/08/15 05:36:05;;;;;;;16.50;8.43;;;19.30;99.90;;;;;;4862173;29;20461;-87
2023/08/15 05:38:31;;;;;;;9.37;8.40;;;19.40;99.90;;;;;;4861778;29;20604;-88
2023/08/15 05:40:57;;;;;;;13.27;8.80;;;19.40;99.90;;;;;;4861741;29;20297;-87
2023/08/15 05:43:22;;;;;;;9.53;8.00;;;19.40;99.90;;;;;;4861842;29;20203;-85
2023/08/15 05:45:48;;;;;;;15.30;9.23;;;19.40;99.90;;;;;;4844366;29;20649;-87
2023/08/15 05:48:14;;;;;;;14.00;8.73;;;19.40;99.90;;;;;;4861840;29;20586;-87
2023/08/15 05:50:40;;;;;;;14.07;10.50;;;19.40;99.90;;;;;;4862095;29;20455;-85
2023/08/15 05:53:05;;;;;;;11.13;8.27;;;19.50;99.90;;;;;;4862199;29;20192;-87
2023/08/15 05:55:31;;;;;;;12.13;9.07;;;19.50;99.90;;;;;;4862073;29;20623;-87
2023/08/15 05:57:57;;;;;;;10.70;8.50;;;19.50;99.90;;;;;;4865326;29;20207;-86
2023/08/15 06:00:22;;;;;;;12.03;8.00;;;19.40;99.90;;;;;;4865490;29;20630;-87
2023/08/15 06:02:48;;;;;;;15.10;9.50;;;19.50;99.90;;;;;;4865685;29;20196;-88
2023/08/15 06:05:13;;;;;;;11.53;9.67;;;19.50;99.90;;;;;;4865811;29;20543;-88
2023/08/15 06:07:40;;;;;;;14.43;10.50;;;19.70;99.90;;;;;;4865313;29;20207;-88
2023/08/15 06:10:07;;;;;;;13.40;10.30;;;19.70;99.90;;;;;;4865128;29;20224;-88
2023/08/15 06:12:33;;;;;;;16.57;9.80;;;19.80;99.90;;;;;;4863601;29;20406;-89
2023/08/15 06:14:58;;;;;;;12.13;9.90;;;19.80;99.90;;;;;;4862081;29;20483;-87
2023/08/15 06:17:24;;;;;;;17.20;10.23;;;19.80;99.90;;;;;;4863709;29;20248;-87
2023/08/15 06:19:50;;;;;;;13.27;9.60;;;19.80;99.90;;;;;;4862246;29;20256;-87
2023/08/15 06:22:15;;;;;;;13.77;8.33;;;19.90;99.90;;;;;;4862977;29;20269;-87
2023/08/15 06:24:41;;;;;;;11.67;8.23;;;19.90;99.90;;;;;;4862527;29;20721;-88
2023/08/15 06:27:07;;;;;;;12.97;8.83;;;19.90;99.90;;;;;;4863398;29;20607;-88
2023/08/15 06:29:32;;;;;;;14.10;8.53;;;20.00;99.90;;;;;;4844818;29;20695;-87
2023/08/15 06:31:59;;;;;;;9.90;7.13;;;20.00;99.90;;;;;;4861300;29;20184;-87
2023/08/15 06:34:24;;;;;;;11.50;7.97;;;19.90;99.90;;;;;;4861621;29;20212;-87
2023/08/15 06:36:50;;;;;;;8.90;7.60;;;20.00;99.90;;;;;;4861260;29;20392;-88
2023/08/15 06:39:16;;;;;;;9.90;8.20;;;20.10;99.90;;;;;;4861775;29;20196;-87
2023/08/15 06:41:41;;;;;;;10.47;7.67;;;20.10;99.90;;;;;;4861709;29;20200;-89
2023/08/15 06:44:07;;;;;;;13.60;8.20;;;20.30;99.90;;;;;;4861691;29;20601;-93
2023/08/15 06:46:33;;;;;;;8.80;7.37;;;20.40;99.90;;;;;;4862072;29;20275;-93
2023/08/15 06:48:58;;;;;;;9.37;7.37;;;20.50;99.90;;;;;;4862226;29;20512;-93
2023/08/15 06:51:24;;;;;;;7.83;7.10;;;20.60;99.90;;;;;;4862376;29;20226;-93
2023/08/15 06:53:50;;;;;;;10.37;7.30;;;20.50;99.90;;;;;;4862137;29;20601;-93
2023/08/15 06:56:15;;;;;;;9.73;7.17;;;20.60;99.90;;;;;;4862087;29;20244;-93
2023/08/15 06:58:41;;;;;;;9.83;6.40;;;20.60;99.90;;;;;;4863766;29;20429;-92
2023/08/15 07:01:07;;;;;;;7.13;6.43;;;20.60;99.90;;;;;;4865535;29;20234;-93
2023/08/15 07:03:33;;;;;;;9.97;7.57;;;20.90;99.90;;;;;;4849145;29;20184;-95
2023/08/15 07:05:59;;;;;;;12.93;9.03;;;21.00;99.90;;;;;;4865277;29;20188;-94
2023/08/15 07:08:25;;;;;;;10.17;7.70;;;21.00;99.90;;;;;;4864780;29;20779;-94
2023/08/15 07:10:55;;;;;;;8.93;6.60;;;20.90;99.90;;;;;;4865027;29;20468;-94
2023/08/15 07:13:21;;;;;;;12.23;8.17;;;20.90;99.90;;;;;;4865407;29;20200;-95
2023/08/15 07:15:52;;;;;;;15.20;7.80;;;21.00;99.90;;;;;;4865363;29;20388;-95
2023/08/15 07:18:18;;;;;;;12.57;7.57;;;21.10;99.90;;;;;;4866219;29;20184;-94
2023/08/15 07:20:44;;;;;;;12.13;8.63;;;21.10;99.90;;;;;;4865039;29;20485;-94
2023/08/15 07:23:10;;;;;;;11.60;9.00;;;21.10;99.90;;;;;;4864441;29;20392;-93
2023/08/15 07:25:41;;;;;;;9.97;8.70;;;21.10;99.90;;;;;;4864441;29;20458;-94
2023/08/15 07:28:07;;;;;;;16.20;8.50;;;21.10;99.90;;;;;;4864580;29;20542;-94
2023/08/15 07:30:33;;;;;;;11.60;8.87;;;21.20;99.90;;;;;;4867598;29;20492;-93
2023/08/15 07:32:58;;;;;;;11.60;7.70;;;21.30;99.90;;;;;;4864378;29;20440;-94
2023/08/15 07:35:24;;;;;;;13.13;7.80;;;21.20;99.90;;;;;;4864098;29;20188;-92
2023/08/15 07:37:50;;;;;;;17.00;7.67;;;21.20;99.90;;;;;;4863834;29;20259;-93
2023/08/15 07:40:20;;;;;;;10.60;8.17;;;21.30;99.90;;;;;;4864040;29;20274;-93
2023/08/15 07:42:49;;;;;;;10.23;7.90;;;21.30;99.90;;;;;;4863830;29;20581;-92
2023/08/15 07:45:17;;;;;;;12.90;7.50;;;21.30;99.90;;;;;;4865668;29;20445;-92
2023/08/15 07:47:44;;;;;;;9.70;7.07;;;21.40;99.90;;;;;;4863387;29;20403;-92
2023/08/15 07:50:17;;;;;;;9.90;7.20;;;21.30;99.90;;;;;;4863506;29;20452;-92
2023/08/15 07:52:43;;;;;;;12.40;6.93;;;21.40;99.90;;;;;;4863513;29;20429;-92
2023/08/15 07:55:09;;;;;;;9.50;5.60;;;21.50;99.90;;;;;;4847417;29;20406;-92
2023/08/15 07:57:35;;;;;;;10.03;5.70;;;21.50;99.90;;;;;;4871395;29;20433;-92
2023/08/15 08:00:01;;;;;;;9.80;6.77;;;21.50;99.90;;;;;;4863606;29;20451;-92
2023/08/15 08:02:26;;;;;;;12.60;5.70;;;21.40;99.90;;;;;;4863399;29;20888;-92
2023/08/15 08:04:52;;;;;;;8.43;5.13;;;21.30;99.90;;;;;;4863250;29;20197;-91
2023/08/15 08:07:18;;;;;;;9.43;5.83;;;21.30;99.90;;;;;;4846750;29;20299;-91
2023/08/15 08:09:43;;;;;;;9.60;6.40;;;21.50;99.90;;;;;;4831448;29;20452;-91
2023/08/15 08:12:09;;;;;;;7.33;5.40;;;21.60;99.90;;;;;;4863586;29;20184;-91
2023/08/15 08:14:35;;;;;;;9.03;5.80;;;21.80;99.90;;;;;;4863262;29;20224;-91
2023/08/15 08:17:00;;;;;;;10.43;4.90;;;21.70;99.90;;;;;;4863008;29;20396;-91
2023/08/15 08:19:26;;;;;;;6.50;4.10;;;21.80;99.90;;;;;;4863135;29;20255;-91
2023/08/15 08:21:52;;;;;;;6.13;3.97;;;21.80;99.90;;;;;;4862896;29;20197;-90
2023/08/15 08:24:17;;;;;;;6.97;4.23;;;21.80;99.90;;;;;;4863151;29;20422;-89
2023/08/15 08:26:43;;;;;;;8.13;5.03;;;21.70;99.90;;;;;;4862752;29;20529;-91
2023/08/15 08:29:10;;;;;;;10.03;4.70;;;21.70;99.90;;;;;;4862814;29;20192;-90
2023/08/15 08:31:39;;;;;;;7.10;4.70;;;21.50;99.90;;;;;;4862945;29;20264;-90
2023/08/15 08:34:05;;;;;;;6.80;4.47;;;21.30;99.90;;;;;;4862659;29;20421;-89
2023/08/15 08:36:31;;;;;;;5.87;3.87;;;21.20;99.90;;;;;;4846321;29;20825;-90
2023/08/15 08:38:56;;;;;;;10.73;4.17;;;21.20;99.90;;;;;;4862703;29;20207;-89
2023/08/15 08:41:23;;;;;;;9.43;4.43;;;21.10;99.90;;;;;;4862854;29;20200;-90
2023/08/15 08:43:48;;;;;;;8.57;4.90;;;20.90;99.90;;;;;;4862753;29;20184;-90
2023/08/15 08:46:15;;;;;;;8.20;4.20;;;20.90;99.90;;;;;;4864575;29;20454;-90
2023/08/15 08:48:42;;;;;;;9.50;4.63;;;20.90;99.90;;;;;;4862600;29;20547;-89
2023/08/15 08:51:08;;;;;;;8.23;4.27;;;20.90;99.90;;;;;;4845920;29;20882;-90
2023/08/15 08:53:34;;;;;;;7.53;4.10;;;21.00;99.90;;;;;;4862651;29;20547;-89
2023/08/15 08:56:01;;;;;;;10.57;3.80;;;21.00;99.90;;;;;;4868013;29;20429;-89
2023/08/15 08:58:29;;;;;;;7.80;3.50;;;21.10;99.90;;;;;;4863044;29;20413;-90
2023/08/15 09:00:57;;;;;;;5.67;4.00;;;21.20;99.90;;;;;;4862116;29;20421;-90
2023/08/15 09:03:23;;;;;;;9.57;3.80;;;21.10;99.90;;;;;;4862397;29;20929;-90
2023/08/15 09:05:48;;;;;;;5.70;3.37;;;21.30;99.90;;;;;;4845797;29;20392;-90
2023/08/15 09:08:14;;;;;;;11.13;3.70;;;21.50;99.90;;;;;;4862350;29;20523;-90
2023/08/15 09:10:40;;;;;;;8.30;4.10;;;21.70;99.90;;;;;;4862296;29;20301;-89
2023/08/15 09:13:05;;;;;;;3.93;3.40;;;21.80;99.90;;;;;;4861979;29;20570;-90
2023/08/15 09:15:31;;;;;;;5.43;3.60;;;22.00;99.90;;;;;;4862308;29;20188;-90
2023/08/15 09:18:04;;;;;;;6.80;3.67;;;22.10;99.90;;;;;;4861896;29;20196;-90
2023/08/15 09:20:30;;;;;;;7.57;4.00;;;22.30;99.90;;;;;;4861660;29;20203;-89
2023/08/15 09:22:57;;;;;;;6.27;3.57;;;22.30;99.90;;;;;;4861770;29;20414;-90
2023/08/15 09:25:25;;;;;;;7.80;3.60;;;22.00;99.90;;;;;;4862104;29;20260;-89
2023/08/15 09:27:51;;;;;;;5.53;4.33;;;22.20;99.90;;;;;;4861729;29;20429;-90
2023/08/15 09:30:17;;;;;;;6.73;3.10;;;22.20;99.90;;;;;;4862108;29;20507;-90
2023/08/15 09:32:44;;;;;;;4.93;3.70;;;22.40;99.90;;;;;;4861849;29;20520;-89
2023/08/15 09:35:12;;;;;;;10.03;3.80;;;22.30;99.90;;;;;;4862180;29;20392;-90
2023/08/15 09:37:42;;;;;;;6.43;3.10;;;22.40;99.90;;;;;;4861836;29;20421;-90
2023/08/15 09:40:10;;;;;;;5.00;3.20;;;22.30;99.90;;;;;;4861324;29;20914;-90
2023/08/15 09:42:36;;;;;;;8.40;3.10;;;22.20;99.90;;;;;;4845188;29;20896;-90
2023/08/15 09:45:03;;;;;;;6.80;3.57;;;22.50;99.90;;;;;;4861499;29;20515;-90
2023/08/15 09:47:29;;;;;;;6.70;3.07;;;22.80;99.90;;;;;;4861668;29;20199;-90
2023/08/15 09:49:55;;;;;;;5.67;3.00;;;22.60;99.90;;;;;;4861345;29;20480;-90
2023/08/15 09:52:22;;;;;;;4.37;2.20;;;22.90;99.90;;;;;;4861720;29;20283;-90
2023/08/15 09:54:48;;;;;;;3.63;3.03;;;23.20;99.90;;;;;;4861428;29;20423;-90
2023/08/15 09:57:14;;;;;;;4.00;3.20;;;23.40;99.90;;;;;;4861561;29;20504;-89
2023/08/15 09:59:39;;;;;;;4.70;2.50;;;23.50;99.90;;;;;;4861319;29;20823;-90
2023/08/15 10:02:15;;;;;;;10.53;2.87;;;23.70;99.90;;;;;;4861338;29;20652;-90
2023/08/15 10:04:42;;;;;;;5.63;2.30;;;23.90;99.90;;;;;;4861579;29;20255;-90
2023/08/15 10:07:08;;;;;;;8.97;3.17;;;24.00;99.90;;;;;;4861276;29;20427;-90
2023/08/15 10:09:33;;;;;;;4.13;2.40;;;24.40;99.90;;;;;;4861296;29;20417;-90
2023/08/15 10:12:00;;;;;;;4.07;3.30;;;24.20;99.90;;;;;;4844408;29;20231;-90
2023/08/15 10:14:26;;;;;;;4.53;2.87;;;24.30;99.90;;;;;;4861364;29;20196;-90
2023/08/15 10:16:52;;;;;;;4.43;3.13;;;24.20;99.90;;;;;;4844694;29;20425;-91
2023/08/15 10:19:18;;;;;;;3.30;2.43;;;24.20;99.90;;;;;;4861090;29;20432;-90
2023/08/15 10:21:51;;;;;;;4.40;2.43;;;24.20;99.90;;;;;;4861151;29;20425;-90
2023/08/15 10:24:17;;;;;;;3.73;2.67;;;24.30;99.90;;;;;;4861179;29;20909;-90
2023/08/15 10:26:46;;;;;;;4.30;2.50;;;24.10;99.90;;;;;;4861145;29;20424;-90
2023/08/15 10:29:14;;;;;;;7.00;2.90;;;24.10;99.90;;;;;;4860543;29;20795;-90
2023/08/15 10:31:40;;;;;;;5.57;2.90;;;24.30;99.90;;;;;;4861610;29;20557;-90
2023/08/15 10:34:10;;;;;;;3.83;2.93;;;24.20;99.90;;;;;;4848089;29;20437;-90
2023/08/15 10:36:39;;;;;;;6.03;3.83;;;24.00;99.90;;;;;;4865001;29;20557;-90
2023/08/15 10:39:06;;;;;;;6.40;3.23;;;24.00;99.90;;;;;;4864810;29;20420;-90
2023/08/15 10:41:36;;;;;;;6.30;3.70;;;23.80;99.90;;;;;;4864551;29;20428;-90
2023/08/15 10:44:07;;;;;;;7.63;3.80;;;24.00;99.90;;;;;;4864578;29;20417;-90
2023/08/15 10:46:35;;;;;;;5.70;4.20;;;24.20;99.90;;;;;;4864711;29;20766;-89
2023/08/15 10:49:09;;;;;;;8.40;4.43;;;24.40;99.90;;;;;;4864421;29;20425;-90
2023/08/15 10:51:41;;;;;;;7.07;3.93;;;24.60;99.90;;;;;;4864521;29;20479;-90
2023/08/15 10:54:13;;;;;;;6.47;3.43;;;24.50;99.90;;;;;;4864356;29;20440;-90
2023/08/15 10:56:40;;;;;;;4.97;3.40;;;24.60;99.90;;;;;;4864491;29;20413;-90
2023/08/15 10:59:14;;;;;;;3.20;2.90;;;24.80;99.90;;;;;;4863946;29;20437;-90
2023/08/15 11:01:41;;;;;;;4.33;2.93;;;24.80;99.90;;;;;;4864454;29;20413;-90
2023/08/15 11:04:08;;;;;;;5.73;2.90;;;24.70;99.90;;;;;;4864253;29;20413;-90
2023/08/15 11:06:48;;;;;;;6.87;3.40;;;24.90;99.90;;;;;;4864163;29;20429;-90
2023/08/15 11:09:14;;;;;;;8.83;3.73;;;25.50;99.90;;;;;;4847470;29;20460;-90
2023/08/15 11:11:40;;;;;;;4.67;3.20;;;25.60;99.90;;;;;;4864151;29;20667;-90
2023/08/15 11:14:18;;;;;;;4.23;3.47;;;25.80;99.90;;;;;;4863723;29;20420;-90
2023/08/15 11:16:45;;;;;;;7.83;3.27;;;26.00;99.90;;;;;;4863875;29;20180;-90
2023/08/15 11:19:13;;;;;;;4.17;3.07;;;26.10;99.90;;;;;;4847304;29;20523;-90
2023/08/15 11:21:39;;;;;;;3.57;3.07;;;26.10;99.90;;;;;;4864049;29;20429;-90
2023/08/15 11:24:05;;;;;;;4.23;3.50;;;26.10;99.90;;;;;;4863684;29;20511;-90
2023/08/15 11:26:30;;;;;;;6.37;3.20;;;26.20;99.90;;;;;;4863801;29;20236;-90
2023/08/15 11:28:56;;;;;;;6.10;3.63;;;26.40;99.90;;;;;;4846922;29;20433;-90
2023/08/15 11:31:21;;;;;;;4.20;3.30;;;26.20;99.90;;;;;;4863425;29;20270;-90
2023/08/15 11:33:50;;;;;;;5.47;3.13;;;26.10;99.90;;;;;;4847434;29;20193;-90
2023/08/15 11:36:16;;;;;;;5.27;3.33;;;26.10;99.90;;;;;;4863526;29;20201;-90
2023/08/15 11:38:42;;;;;;;3.50;3.20;;;26.30;99.90;;;;;;4863711;29;20392;-90
2023/08/15 11:41:07;;;;;;;3.00;2.80;;;26.50;99.90;;;;;;4863427;29;20188;-90
2023/08/15 11:43:34;;;;;;;4.50;3.20;;;26.60;99.90;;;;;;4846498;29;20200;-90
2023/08/15 11:46:03;;;;;;;4.13;2.90;;;26.70;99.90;;;;;;4863251;29;20249;-89
2023/08/15 11:48:30;;;;;;;2.90;2.37;;;26.90;99.90;;;;;;4863192;29;21025;-90
2023/08/15 11:50:56;;;;;;;5.23;3.13;;;26.80;99.90;;;;;;4865598;29;20583;-89
2023/08/15 11:53:22;;;;;;;7.43;3.20;;;26.70;99.90;;;;;;4850370;29;20920;-89
2023/08/15 11:55:47;;;;;;;3.53;3.23;;;27.10;99.90;;;;;;4847003;29;20202;-90
2023/08/15 11:58:27;;;;;;;3.47;2.87;;;26.90;99.90;;;;;;4863117;29;20202;-90
2023/08/15 12:01:07;;;;;;;3.33;2.70;;;27.30;99.90;;;;;;4863428;29;20192;-89
2023/08/15 12:03:34;;;;;;;5.80;3.30;;;27.90;99.90;;;;;;4863211;29;20425;-89
2023/08/15 12:06:02;;;;;;;5.13;2.90;;;28.10;99.90;;;;;;4846578;29;20505;-90
2023/08/15 12:08:29;;;;;;;3.20;2.90;;;28.40;99.90;;;;;;4863148;29;20432;-90
2023/08/15 12:10:59;;;;;;;5.37;3.10;;;28.50;99.90;;;;;;4863955;29;20529;-91
2023/08/15 12:13:32;;;;;;;3.97;2.67;;;28.70;99.90;;;;;;4863158;29;20418;-90
2023/08/15 12:15:59;;;;;;;4.50;3.50;;;28.30;99.90;;;;;;4863452;29;20414;-90
2023/08/15 12:18:25;;;;;;;5.60;3.23;;;28.00;99.90;;;;;;4863442;29;20420;-90
2023/08/15 12:20:50;;;;;;;6.33;3.53;;;28.00;99.90;;;;;;4863266;29;20424;-90
2023/08/15 12:23:16;;;;;;;6.20;2.90;;;27.70;99.90;;;;;;4862671;29;20189;-90
2023/08/15 12:25:42;;;;;;;4.73;2.87;;;27.30;99.90;;;;;;4863338;29;20191;-89
2023/08/15 12:28:07;;;;;;;4.40;3.10;;;27.00;99.90;;;;;;4863429;29;20199;-91
2023/08/15 12:30:33;;;;;;;4.67;3.10;;;27.30;99.90;;;;;;4863596;29;20259;-90
2023/08/15 12:32:59;;;;;;;4.13;3.70;;;27.10;99.90;;;;;;4846672;29;20196;-90
2023/08/15 12:35:24;;;;;;;5.43;3.10;;;27.30;99.90;;;;;;4863293;29;20192;-90
2023/08/15 12:37:50;;;;;;;4.93;3.10;;;27.20;99.90;;;;;;4863201;29;20211;-90
2023/08/15 12:40:16;;;;;;;6.27;4.17;;;26.80;99.90;;;;;;4846433;29;20613;-90